sensor_id;sensor_type;location;lat;lon;timestamp;pressure;altitude;pressure_sealevel;temperature;humidity
46456;BME280;64052;47.466;9.094;2023-01-28T00:03:40;95979.19;;;6.17;50.98
46456;BME280;64052;47.466;9.094;2023-01-28T00:08:42;95969.91;;;6.26;50.18
46456;BME280;64052;47.466;9.094;2023-01-28T00:13:43;95976.41;;;6.20;50.38
46456;BME280;64052;47.466;9.094;2023-01-28T00:18:45;95966.88;;;6.19;50.51
46456;BME280;64052;47.466;9.094;2023-01-28T00:23:50;95964.63;;;5.58;51.77
46456;BME280;64052;47.466;9.094;2023-01-28T00:28:52;95950.28;;;5.91;51.29
46456;BME280;64052;47.466;9.094;2023-01-28T00:33:55;95959.53;;;5.97;51.36
46456;BME280;64052;47.466;9.094;2023-01-28T00:38:58;95954.13;;;6.00;51.08
46456;BME280;64052;47.466;9.094;2023-01-28T00:43:59;95947.28;;;5.97;50.86
46456;BME280;64052;47.466;9.094;2023-01-28T00:49:03;95952.69;;;6.09;50.93
46456;BME280;64052;47.466;9.094;2023-01-28T00:54:04;95962.97;;;6.12;50.73
46456;BME280;64052;47.466;9.094;2023-01-28T00:59:07;95955.88;;;5.99;50.56
46456;BME280;64052;47.466;9.094;2023-01-28T01:04:08;95964.13;;;6.08;50.31
46456;BME280;64052;47.466;9.094;2023-01-28T01:09:10;95963.28;;;5.93;50.57
46456;BME280;64052;47.466;9.094;2023-01-28T01:14:14;95971.69;;;5.98;50.60
46456;BME280;64052;47.466;9.094;2023-01-28T01:19:15;95968.69;;;6.04;50.39
46456;BME280;64052;47.466;9.094;2023-01-28T01:24:17;95969.19;;;5.96;50.64
46456;BME280;64052;47.466;9.094;2023-01-28T01:29:18;95974.16;;;5.86;50.85
46456;BME280;64052;47.466;9.094;2023-01-28T01:34:20;95974.50;;;5.95;50.81
46456;BME280;64052;47.466;9.094;2023-01-28T01:39:22;95963.28;;;5.93;50.44
46456;BME280;64052;47.466;9.094;2023-01-28T01:55:24;95973.56;;;5.68;51.39
46456;BME280;64052;47.466;9.094;2023-01-28T02:00:27;95977.41;;;5.62;51.19
46456;BME280;64052;47.466;9.094;2023-01-28T02:05:29;95980.94;;;5.76;51.07
46456;BME280;64052;47.466;9.094;2023-01-28T02:10:30;95980.66;;;5.66;50.80
46456;BME280;64052;47.466;9.094;2023-01-28T02:15:32;95981.31;;;5.70;51.40
46456;BME280;64052;47.466;9.094;2023-01-28T02:31:13;95987.56;;;5.67;50.89
46456;BME280;64052;47.466;9.094;2023-01-28T02:36:31;95993.56;;;5.69;50.97
46456;BME280;64052;47.466;9.094;2023-01-28T02:41:49;95987.09;;;5.33;51.80
46456;BME280;64052;47.466;9.094;2023-01-28T02:46:53;95988.06;;;5.59;51.07
46456;BME280;64052;47.466;9.094;2023-01-28T02:52:28;95991.88;;;5.68;51.20
46456;BME280;64052;47.466;9.094;2023-01-28T02:57:36;95990.00;;;5.70;50.80
46456;BME280;64052;47.466;9.094;2023-01-28T03:02:52;95989.16;;;5.70;50.77
46456;BME280;64052;47.466;9.094;2023-01-28T03:07:54;95986.91;;;5.78;50.70
46456;BME280;64052;47.466;9.094;2023-01-28T03:12:56;95981.47;;;5.81;50.73
46456;BME280;64052;47.466;9.094;2023-01-28T03:23:06;95988.88;;;5.74;50.61
46456;BME280;64052;47.466;9.094;2023-01-28T03:28:12;95989.41;;;5.80;50.63
46456;BME280;64052;47.466;9.094;2023-01-28T03:33:17;95992.97;;;5.79;50.00
46456;BME280;64052;47.466;9.094;2023-01-28T03:38:19;95987.91;;;5.75;50.51
46456;BME280;64052;47.466;9.094;2023-01-28T03:43:22;95996.72;;;5.74;50.56
46456;BME280;64052;47.466;9.094;2023-01-28T03:48:26;95978.75;;;5.83;50.52
46456;BME280;64052;47.466;9.094;2023-01-28T03:53:28;95994.63;;;5.80;50.62
46456;BME280;64052;47.466;9.094;2023-01-28T03:58:31;95995.69;;;5.77;50.39
46456;BME280;64052;47.466;9.094;2023-01-28T04:03:34;96003.88;;;5.85;50.58
46456;BME280;64052;47.466;9.094;2023-01-28T04:08:39;95997.81;;;5.85;50.64
46456;BME280;64052;47.466;9.094;2023-01-28T04:13:57;96001.44;;;5.82;51.18
46456;BME280;64052;47.466;9.094;2023-01-28T04:19:01;95998.75;;;5.84;51.34
46456;BME280;64052;47.466;9.094;2023-01-28T04:24:03;96004.72;;;5.86;50.72
46456;BME280;64052;47.466;9.094;2023-01-28T04:29:06;96007.13;;;5.89;51.10
46456;BME280;64052;47.466;9.094;2023-01-28T04:34:10;96001.44;;;5.82;51.25
46456;BME280;64052;47.466;9.094;2023-01-28T04:39:31;96010.91;;;5.85;51.54
46456;BME280;64052;47.466;9.094;2023-01-28T04:44:43;96013.50;;;5.85;51.26
46456;BME280;64052;47.466;9.094;2023-01-28T04:50:10;96018.75;;;5.85;51.24
46456;BME280;64052;47.466;9.094;2023-01-28T04:55:30;96019.69;;;5.84;51.55
46456;BME280;64052;47.466;9.094;2023-01-28T05:00:33;96022.31;;;5.84;51.25
46456;BME280;64052;47.466;9.094;2023-01-28T05:05:35;96032.56;;;5.87;51.12
46456;BME280;64052;47.466;9.094;2023-01-28T05:10:51;96033.13;;;5.77;51.60
46456;BME280;64052;47.466;9.094;2023-01-28T05:15:53;96027.88;;;5.92;50.94
46456;BME280;64052;47.466;9.094;2023-01-28T05:20:55;96035.81;;;6.05;50.89
46456;BME280;64052;47.466;9.094;2023-01-28T05:25:57;96041.50;;;6.12;50.62
46456;BME280;64052;47.466;9.094;2023-01-28T05:31:02;96046.19;;;5.92;51.25
46456;BME280;64052;47.466;9.094;2023-01-28T05:36:04;96049.16;;;6.15;51.06
46456;BME280;64052;47.466;9.094;2023-01-28T05:41:06;96055.38;;;6.27;50.05
46456;BME280;64052;47.466;9.094;2023-01-28T05:46:09;96057.84;;;6.43;49.67
46456;BME280;64052;47.466;9.094;2023-01-28T05:51:29;96048.94;;;6.45;49.96
46456;BME280;64052;47.466;9.094;2023-01-28T05:56:32;96058.47;;;6.46;49.50
46456;BME280;64052;47.466;9.094;2023-01-28T06:06:37;96061.66;;;6.24;49.91
46456;BME280;64052;47.466;9.094;2023-01-28T06:11:39;96070.53;;;6.22;50.24
46456;BME280;64052;47.466;9.094;2023-01-28T06:16:41;96070.38;;;6.25;50.02
46456;BME280;64052;47.466;9.094;2023-01-28T06:21:57;96079.53;;;6.45;49.45
46456;BME280;64052;47.466;9.094;2023-01-28T06:26:59;96076.56;;;6.37;49.61
46456;BME280;64052;47.466;9.094;2023-01-28T06:32:00;96080.38;;;6.45;49.32
46456;BME280;64052;47.466;9.094;2023-01-28T06:37:02;96075.03;;;6.47;49.09
46456;BME280;64052;47.466;9.094;2023-01-28T06:42:03;96075.13;;;6.45;48.63
46456;BME280;64052;47.466;9.094;2023-01-28T06:47:05;96082.91;;;6.47;48.69
46456;BME280;64052;47.466;9.094;2023-01-28T06:52:06;96083.53;;;6.23;49.30
46456;BME280;64052;47.466;9.094;2023-01-28T06:57:08;96093.28;;;6.21;49.66
46456;BME280;64052;47.466;9.094;2023-01-28T07:02:10;96089.63;;;6.24;49.55
46456;BME280;64052;47.466;9.094;2023-01-28T07:07:12;96093.72;;;6.28;49.27
46456;BME280;64052;47.466;9.094;2023-01-28T07:12:13;96106.91;;;6.26;49.63
46456;BME280;64052;47.466;9.094;2023-01-28T07:17:14;96104.66;;;6.35;48.84
46456;BME280;64052;47.466;9.094;2023-01-28T07:22:16;96103.34;;;6.27;49.37
46456;BME280;64052;47.466;9.094;2023-01-28T07:27:17;96112.34;;;6.23;49.71
46456;BME280;64052;47.466;9.094;2023-01-28T07:32:19;96122.16;;;6.19;49.74
46456;BME280;64052;47.466;9.094;2023-01-28T07:37:20;96123.34;;;6.28;49.42
46456;BME280;64052;47.466;9.094;2023-01-28T07:42:22;96126.75;;;6.30;49.32
46456;BME280;64052;47.466;9.094;2023-01-28T07:47:26;96130.66;;;6.23;48.73
46456;BME280;64052;47.466;9.094;2023-01-28T07:52:27;96131.31;;;6.27;49.31
46456;BME280;64052;47.466;9.094;2023-01-28T07:57:29;96145.81;;;6.32;48.86
46456;BME280;64052;47.466;9.094;2023-01-28T08:02:30;96136.28;;;6.31;49.27
46456;BME280;64052;47.466;9.094;2023-01-28T08:07:32;96142.78;;;6.39;48.54
46456;BME280;64052;47.466;9.094;2023-01-28T08:12:33;96151.69;;;6.36;48.81
46456;BME280;64052;47.466;9.094;2023-01-28T08:17:35;96157.38;;;6.43;48.89
46456;BME280;64052;47.466;9.094;2023-01-28T08:22:36;96161.25;;;6.37;49.21
46456;BME280;64052;47.466;9.094;2023-01-28T08:27:38;96176.41;;;6.59;48.26
46456;BME280;64052;47.466;9.094;2023-01-28T08:32:39;96178.22;;;6.44;48.48
46456;BME280;64052;47.466;9.094;2023-01-28T08:37:41;96183.25;;;6.62;48.52
46456;BME280;64052;47.466;9.094;2023-01-28T08:42:50;96194.66;;;6.61;48.72
46456;BME280;64052;47.466;9.094;2023-01-28T08:53:03;96201.16;;;6.41;48.46
46456;BME280;64052;47.466;9.094;2023-01-28T08:58:07;96202.75;;;6.43;48.08
46456;BME280;64052;47.466;9.094;2023-01-28T09:03:10;96196.75;;;6.41;48.15
46456;BME280;64052;47.466;9.094;2023-01-28T09:08:13;96205.06;;;6.48;47.57
46456;BME280;64052;47.466;9.094;2023-01-28T09:13:15;96199.94;;;6.32;48.20
46456;BME280;64052;47.466;9.094;2023-01-28T09:18:17;96204.53;;;6.43;47.53
46456;BME280;64052;47.466;9.094;2023-01-28T09:23:18;96203.63;;;6.15;48.36
46456;BME280;64052;47.466;9.094;2023-01-28T09:28:20;96211.91;;;6.51;47.25
46456;BME280;64052;47.466;9.094;2023-01-28T09:33:21;96214.59;;;6.49;47.18
46456;BME280;64052;47.466;9.094;2023-01-28T09:38:23;96227.13;;;6.58;46.49
46456;BME280;64052;47.466;9.094;2023-01-28T09:48:42;96226.97;;;6.47;45.41
46456;BME280;64052;47.466;9.094;2023-01-28T09:53:47;96219.69;;;6.38;45.74
46456;BME280;64052;47.466;9.094;2023-01-28T09:58:51;96222.56;;;6.62;45.48
46456;BME280;64052;47.466;9.094;2023-01-28T10:04:02;96217.25;;;6.77;44.60
46456;BME280;64052;47.466;9.094;2023-01-28T10:09:28;96220.59;;;6.51;45.84
46456;BME280;64052;47.466;9.094;2023-01-28T10:19:52;96216.63;;;6.73;44.90
46456;BME280;64052;47.466;9.094;2023-01-28T10:25:00;96210.78;;;6.82;45.39
46456;BME280;64052;47.466;9.094;2023-01-28T10:30:30;96204.63;;;6.96;44.61
46456;BME280;64052;47.466;9.094;2023-01-28T10:35:37;96197.31;;;7.01;45.18
46456;BME280;64052;47.466;9.094;2023-01-28T10:40:41;96195.09;;;6.95;45.02
46456;BME280;64052;47.466;9.094;2023-01-28T10:46:00;96192.72;;;7.05;45.41
46456;BME280;64052;47.466;9.094;2023-01-28T10:51:04;96200.91;;;7.00;44.87
46456;BME280;64052;47.466;9.094;2023-01-28T10:56:17;96205.41;;;6.98;45.41
46456;BME280;64052;47.466;9.094;2023-01-28T11:01:24;96209.69;;;6.99;45.64
46456;BME280;64052;47.466;9.094;2023-01-28T11:06:27;96201.41;;;6.93;45.51
46456;BME280;64052;47.466;9.094;2023-01-28T11:11:29;96210.72;;;6.97;45.59
46456;BME280;64052;47.466;9.094;2023-01-28T11:16:31;96208.31;;;6.94;44.78
46456;BME280;64052;47.466;9.094;2023-01-28T11:21:33;96202.66;;;7.00;45.08
46456;BME280;64052;47.466;9.094;2023-01-28T11:26:37;96208.03;;;7.11;44.64
46456;BME280;64052;47.466;9.094;2023-01-28T11:31:42;96211.00;;;7.20;44.58
46456;BME280;64052;47.466;9.094;2023-01-28T11:36:52;96213.50;;;7.08;44.83
46456;BME280;64052;47.466;9.094;2023-01-28T11:42:10;96209.41;;;7.04;44.30
46456;BME280;64052;47.466;9.094;2023-01-28T11:47:25;96208.78;;;7.13;44.26
46456;BME280;64052;47.466;9.094;2023-01-28T12:03:33;96197.03;;;7.06;43.92
46456;BME280;64052;47.466;9.094;2023-01-28T12:24:37;96186.03;;;7.27;43.74
46456;BME280;64052;47.466;9.094;2023-01-28T12:40:19;96180.47;;;6.78;43.13
46456;BME280;64052;47.466;9.094;2023-01-28T12:45:40;96180.28;;;6.81;43.29
46456;BME280;64052;47.466;9.094;2023-01-28T12:50:48;96184.00;;;6.64;43.97
46456;BME280;64052;47.466;9.094;2023-01-28T12:56:46;96181.97;;;6.82;42.85
46456;BME280;64052;47.466;9.094;2023-01-28T13:01:27;96173.38;;;6.80;42.26
46456;BME280;64052;47.466;9.094;2023-01-28T13:06:38;96185.91;;;7.02;42.95
46456;BME280;64052;47.466;9.094;2023-01-28T13:11:42;96192.19;;;7.00;42.83
46456;BME280;64052;47.466;9.094;2023-01-28T13:16:43;96191.66;;;7.08;42.81
46456;BME280;64052;47.466;9.094;2023-01-28T13:21:46;96197.28;;;6.88;42.51
46456;BME280;64052;47.466;9.094;2023-01-28T13:26:56;96202.66;;;7.00;42.65
46456;BME280;64052;47.466;9.094;2023-01-28T13:32:00;96191.94;;;6.90;42.97
46456;BME280;64052;47.466;9.094;2023-01-28T13:37:14;96209.88;;;6.96;43.15
46456;BME280;64052;47.466;9.094;2023-01-28T13:42:24;96210.72;;;6.97;42.65
46456;BME280;64052;47.466;9.094;2023-01-28T13:47:30;96212.19;;;6.88;42.73
46456;BME280;64052;47.466;9.094;2023-01-28T13:52:45;96223.75;;;6.98;42.83
46456;BME280;64052;47.466;9.094;2023-01-28T13:58:10;96220.63;;;7.06;42.82
46456;BME280;64052;47.466;9.094;2023-01-28T14:19:49;96248.44;;;6.81;42.57
46456;BME280;64052;47.466;9.094;2023-01-28T14:24:53;96254.34;;;6.98;42.59
46456;BME280;64052;47.466;9.094;2023-01-28T14:30:07;96254.06;;;7.02;42.39
46456;BME280;64052;47.466;9.094;2023-01-28T14:35:28;96253.66;;;7.09;42.90
46456;BME280;64052;47.466;9.094;2023-01-28T14:40:31;96255.47;;;7.21;43.60
46456;BME280;64052;47.466;9.094;2023-01-28T15:01:28;96272.41;;;7.02;42.86
46456;BME280;64052;47.466;9.094;2023-01-28T15:06:34;96271.97;;;6.96;43.25
46456;BME280;64052;47.466;9.094;2023-01-28T15:11:38;96279.63;;;6.99;42.81
46456;BME280;64052;47.466;9.094;2023-01-28T15:16:46;96282.59;;;6.80;43.55
46456;BME280;64052;47.466;9.094;2023-01-28T15:21:48;96289.38;;;6.97;43.25
46456;BME280;64052;47.466;9.094;2023-01-28T15:26:50;96290.69;;;6.89;42.82
46456;BME280;64052;47.466;9.094;2023-01-28T15:31:51;96297.34;;;6.95;42.86
46456;BME280;64052;47.466;9.094;2023-01-28T15:36:53;96299.25;;;7.21;43.00
46456;BME280;64052;47.466;9.094;2023-01-28T15:42:01;96296.13;;;7.28;42.44
46456;BME280;64052;47.466;9.094;2023-01-28T15:47:13;96303.31;;;6.97;43.28
46456;BME280;64052;47.466;9.094;2023-01-28T15:52:16;96311.28;;;6.96;43.14
46456;BME280;64052;47.466;9.094;2023-01-28T15:57:24;96316.38;;;6.84;43.82
46456;BME280;64052;47.466;9.094;2023-01-28T16:02:30;96317.13;;;6.72;43.34
46456;BME280;64052;47.466;9.094;2023-01-28T16:07:32;96323.13;;;6.74;43.64
46456;BME280;64052;47.466;9.094;2023-01-28T16:12:34;96323.69;;;6.79;43.47
46456;BME280;64052;47.466;9.094;2023-01-28T16:17:41;96332.00;;;6.71;42.83
46456;BME280;64052;47.466;9.094;2023-01-28T16:22:47;96336.63;;;6.68;42.61
46456;BME280;64052;47.466;9.094;2023-01-28T16:27:49;96347.72;;;6.71;43.32
46456;BME280;64052;47.466;9.094;2023-01-28T16:32:51;96351.47;;;6.67;42.81
46456;BME280;64052;47.466;9.094;2023-01-28T16:37:52;96362.16;;;6.79;43.14
46456;BME280;64052;47.466;9.094;2023-01-28T16:42:54;96358.66;;;6.78;43.07
46456;BME280;64052;47.466;9.094;2023-01-28T16:47:55;96357.91;;;6.91;42.85
46456;BME280;64052;47.466;9.094;2023-01-28T16:52:58;96366.09;;;6.86;42.41
46456;BME280;64052;47.466;9.094;2023-01-28T16:57:59;96363.63;;;6.83;43.23
46456;BME280;64052;47.466;9.094;2023-01-28T17:03:01;96370.28;;;6.88;43.06
46456;BME280;64052;47.466;9.094;2023-01-28T17:08:03;96377.13;;;6.91;43.03
46456;BME280;64052;47.466;9.094;2023-01-28T17:13:04;96383.75;;;6.97;42.93
46456;BME280;64052;47.466;9.094;2023-01-28T17:18:08;96387.22;;;6.83;43.35
46456;BME280;64052;47.466;9.094;2023-01-28T17:23:14;96389.09;;;6.81;42.66
46456;BME280;64052;47.466;9.094;2023-01-28T17:28:15;96395.66;;;6.73;42.88
46456;BME280;64052;47.466;9.094;2023-01-28T17:33:17;96405.22;;;6.74;42.90
46456;BME280;64052;47.466;9.094;2023-01-28T17:38:19;96409.25;;;6.80;43.73
46456;BME280;64052;47.466;9.094;2023-01-28T17:43:20;96414.28;;;6.83;43.94
46456;BME280;64052;47.466;9.094;2023-01-28T17:48:22;96417.09;;;6.95;44.46
46456;BME280;64052;47.466;9.094;2023-01-28T17:53:24;96408.03;;;6.86;44.32
46456;BME280;64052;47.466;9.094;2023-01-28T17:58:25;96418.78;;;6.96;44.68
46456;BME280;64052;47.466;9.094;2023-01-28T18:03:27;96420.00;;;6.90;44.69
46456;BME280;64052;47.466;9.094;2023-01-28T18:08:28;96433.84;;;6.92;45.14
46456;BME280;64052;47.466;9.094;2023-01-28T18:13:30;96429.75;;;6.88;45.35
46456;BME280;64052;47.466;9.094;2023-01-28T18:18:32;96432.34;;;6.88;45.03
46456;BME280;64052;47.466;9.094;2023-01-28T18:23:34;96429.81;;;6.86;46.19
46456;BME280;64052;47.466;9.094;2023-01-28T18:28:35;96425.91;;;6.94;45.83
46456;BME280;64052;47.466;9.094;2023-01-28T18:33:37;96434.03;;;6.89;45.39
46456;BME280;64052;47.466;9.094;2023-01-28T18:38:38;96433.28;;;6.87;45.41
46456;BME280;64052;47.466;9.094;2023-01-28T18:43:40;96438.53;;;6.87;45.63
46456;BME280;64052;47.466;9.094;2023-01-28T18:48:42;96446.28;;;6.88;45.77
46456;BME280;64052;47.466;9.094;2023-01-28T18:53:44;96444.34;;;6.92;45.86
46456;BME280;64052;47.466;9.094;2023-01-28T18:58:45;96457.16;;;6.82;45.81
46456;BME280;64052;47.466;9.094;2023-01-28T19:03:47;96454.72;;;6.79;46.33
46456;BME280;64052;47.466;9.094;2023-01-28T19:08:53;96455.38;;;6.83;46.03
46456;BME280;64052;47.466;9.094;2023-01-28T19:13:55;96448.63;;;6.93;46.12
46456;BME280;64052;47.466;9.094;2023-01-28T19:18:58;96452.59;;;7.00;46.08
46456;BME280;64052;47.466;9.094;2023-01-28T19:24:03;96460.81;;;6.80;46.11
46456;BME280;64052;47.466;9.094;2023-01-28T19:29:06;96459.13;;;6.79;46.46
46456;BME280;64052;47.466;9.094;2023-01-28T19:34:08;96467.19;;;6.75;46.71
46456;BME280;64052;47.466;9.094;2023-01-28T19:39:11;96464.16;;;6.82;47.15
46456;BME280;64052;47.466;9.094;2023-01-28T19:44:12;96468.19;;;6.87;47.01
46456;BME280;64052;47.466;9.094;2023-01-28T19:49:14;96470.06;;;6.85;47.23
46456;BME280;64052;47.466;9.094;2023-01-28T19:54:16;96466.50;;;6.72;47.04
46456;BME280;64052;47.466;9.094;2023-01-28T19:59:17;96464.72;;;6.72;47.64
46456;BME280;64052;47.466;9.094;2023-01-28T20:04:19;96469.94;;;6.72;47.55
46456;BME280;64052;47.466;9.094;2023-01-28T20:09:20;96463.34;;;6.67;47.14
46456;BME280;64052;47.466;9.094;2023-01-28T20:14:22;96467.63;;;6.68;47.14
46456;BME280;64052;47.466;9.094;2023-01-28T20:19:23;96477.75;;;6.74;47.66
46456;BME280;64052;47.466;9.094;2023-01-28T20:24:25;96476.44;;;6.67;47.51
46456;BME280;64052;47.466;9.094;2023-01-28T20:29:26;96479.97;;;6.66;47.36
46456;BME280;64052;47.466;9.094;2023-01-28T20:34:28;96481.69;;;6.67;47.36
46456;BME280;64052;47.466;9.094;2023-01-28T20:39:29;96475.03;;;6.75;47.45
46456;BME280;64052;47.466;9.094;2023-01-28T20:44:31;96479.41;;;6.75;46.83
46456;BME280;64052;47.466;9.094;2023-01-28T20:49:32;96490.09;;;6.72;47.15
46456;BME280;64052;47.466;9.094;2023-01-28T20:54:34;96478.75;;;6.71;46.58
46456;BME280;64052;47.466;9.094;2023-01-28T20:59:35;96488.59;;;6.68;46.77
46456;BME280;64052;47.466;9.094;2023-01-28T21:04:37;96492.84;;;6.54;46.91
46456;BME280;64052;47.466;9.094;2023-01-28T21:09:38;96486.38;;;6.45;47.89
46456;BME280;64052;47.466;9.094;2023-01-28T21:14:40;96485.56;;;6.45;48.04
46456;BME280;64052;47.466;9.094;2023-01-28T21:19:41;96482.78;;;6.32;47.38
46456;BME280;64052;47.466;9.094;2023-01-28T21:24:43;96485.16;;;6.37;47.54
46456;BME280;64052;47.466;9.094;2023-01-28T21:29:44;96482.78;;;6.32;47.50
46456;BME280;64052;47.466;9.094;2023-01-28T21:34:46;96489.44;;;6.07;47.88
46456;BME280;64052;47.466;9.094;2023-01-28T21:39:47;96483.63;;;6.02;48.29
46456;BME280;64052;47.466;9.094;2023-01-28T21:44:49;96485.38;;;6.01;48.20
46456;BME280;64052;47.466;9.094;2023-01-28T21:49:50;96487.16;;;6.01;48.12
46456;BME280;64052;47.466;9.094;2023-01-28T21:54:52;96482.91;;;5.98;48.21
46456;BME280;64052;47.466;9.094;2023-01-28T21:59:53;96493.81;;;5.90;48.42
46456;BME280;64052;47.466;9.094;2023-01-28T22:04:55;96493.16;;;5.87;48.51
46456;BME280;64052;47.466;9.094;2023-01-28T22:09:56;96509.59;;;5.89;48.68
46456;BME280;64052;47.466;9.094;2023-01-28T22:14:58;96509.53;;;5.90;49.35
46456;BME280;64052;47.466;9.094;2023-01-28T22:19:59;96506.41;;;6.00;49.09
46456;BME280;64052;47.466;9.094;2023-01-28T22:25:01;96502.69;;;6.20;48.38
46456;BME280;64052;47.466;9.094;2023-01-28T22:30:03;96517.53;;;6.19;48.92
46456;BME280;64052;47.466;9.094;2023-01-28T22:35:04;96522.78;;;6.19;49.04
46456;BME280;64052;47.466;9.094;2023-01-28T22:40:06;96511.47;;;6.19;48.74
46456;BME280;64052;47.466;9.094;2023-01-28T22:45:08;96514.66;;;6.24;48.78
46456;BME280;64052;47.466;9.094;2023-01-28T22:50:10;96508.31;;;6.28;49.09
46456;BME280;64052;47.466;9.094;2023-01-28T22:55:12;96492.22;;;6.20;48.72
46456;BME280;64052;47.466;9.094;2023-01-28T23:00:14;96478.63;;;6.13;48.79
46456;BME280;64052;47.466;9.094;2023-01-28T23:05:17;96491.16;;;6.23;48.81
46456;BME280;64052;47.466;9.094;2023-01-28T23:10:18;96488.66;;;6.21;49.01
46456;BME280;64052;47.466;9.094;2023-01-28T23:15:20;96476.25;;;6.25;48.77
46456;BME280;64052;47.466;9.094;2023-01-28T23:20:21;96470.81;;;6.28;48.81
46456;BME280;64052;47.466;9.094;2023-01-28T23:25:23;96481.97;;;6.31;48.42
46456;BME280;64052;47.466;9.094;2023-01-28T23:30:24;96469.13;;;6.27;49.16
46456;BME280;64052;47.466;9.094;2023-01-28T23:35:26;96482.31;;;6.25;49.07
46456;BME280;64052;47.466;9.094;2023-01-28T23:40:29;96477.72;;;6.29;48.81
46456;BME280;64052;47.466;9.094;2023-01-28T23:45:30;96476.81;;;6.30;49.25
46456;BME280;64052;47.466;9.094;2023-01-28T23:50:32;96470.63;;;6.31;49.12
46456;BME280;64052;47.466;9.094;2023-01-28T23:55:36;96484.66;;;6.30;49.17
